Charlestown, Rhode Island
Current Conditions -  °F | °C
As of 6:53 PM on Monday 24 Nov 2014 (Local Time) from KWST Reporting Station
Haze Haze  
Wind Chill: 58°   Ceiling: 1200
Heat Index: 58°   Visibility: 5mi
Dew Point: 56°   Wind: 10mph
Humidity: 93%   Direction: 220°SW
Pressure: 29.73"   Gusts: NA
Location:  41.38°N, 71.64°W
Report Text: KWST 242353Z AUTO 22009KT 5SM BR OVC012 14/13 A2973 RMK AO2 SLP065 60000 T01440133 10161 20144 53022
Loading
Personal Weather Stations






























Interactive Weather Map New forecast layout! Learn more

10-Day Weather Forecast

Advertisements
Track Severe Weather on mobile